Time;durP1;ratioP1;P1;durP2;ratioP2;P2;SDS_P1;SDS_P2;PMS_P1;PMS_P2;Temp;Humidity;BMP_temperature;BMP_pressure;BME280_temperature;BME280_humidity;BME280_pressure;Samples;Min_cycle;Max_cycle;Signal;HPM_P1;HPM_P2
2023/08/23 00:01:16;;;;;;;7.68;4.78;;;21.00;99.90;;;;;;6308505;22;20034;-87
2023/08/23 00:04:10;;;;;;;7.32;4.70;;;21.00;99.90;;;;;;6308943;22;20094;-87
2023/08/23 00:06:57;;;;;;;6.00;4.40;;;21.00;1.00;;;;;;6286279;22;20079;-87
2023/08/23 00:09:45;;;;;;;9.77;4.55;;;21.00;1.00;;;;;;6309132;22;20027;-86
2023/08/23 00:12:32;;;;;;;6.38;4.13;;;20.90;1.00;;;;;;6307868;22;20046;-88
2023/08/23 00:15:20;;;;;;;5.18;3.97;;;20.90;99.90;;;;;;6289101;22;20085;-87
2023/08/23 00:18:07;;;;;;;8.40;4.63;;;20.90;99.90;;;;;;6308081;22;20023;-87
2023/08/23 00:20:54;;;;;;;7.07;4.10;;;20.90;99.90;;;;;;6308632;22;20145;-87
2023/08/23 00:23:41;;;;;;;6.10;4.03;;;21.00;99.90;;;;;;6308854;22;20019;-86
2023/08/23 00:26:29;;;;;;;5.32;3.95;;;20.90;99.90;;;;;;6288393;22;20042;-86
2023/08/23 00:29:17;;;;;;;5.95;4.18;;;20.90;99.90;;;;;;6309819;22;20023;-87
2023/08/23 00:32:04;;;;;;;8.77;4.40;;;20.90;99.90;;;;;;6309171;22;20027;-86
2023/08/23 00:34:54;;;;;;;5.43;3.63;;;20.80;99.90;;;;;;6308052;22;20027;-87
2023/08/23 00:37:41;;;;;;;5.80;4.25;;;20.70;99.90;;;;;;6306112;22;20066;-86
2023/08/23 00:40:31;;;;;;;11.18;5.65;;;20.60;99.90;;;;;;6310658;22;20459;-87
2023/08/23 00:43:27;;;;;;;7.47;6.00;;;20.60;82.30;;;;;;6285800;22;20023;-88
2023/08/23 00:46:18;;;;;;;8.43;5.88;;;20.50;1.00;;;;;;6304494;22;20026;-89
2023/08/23 00:49:06;;;;;;;13.00;6.28;;;20.40;99.90;;;;;;6285818;22;20637;-88
2023/08/23 00:51:53;;;;;;;7.85;5.60;;;20.30;99.90;;;;;;6306085;22;20027;-86
2023/08/23 00:54:41;;;;;;;9.43;5.97;;;20.20;99.90;;;;;;6285237;22;20041;-86
2023/08/23 00:57:28;;;;;;;10.55;6.00;;;20.10;99.90;;;;;;6307679;22;20019;-87
2023/08/23 01:00:18;;;;;;;8.85;5.95;;;20.00;99.90;;;;;;6305939;22;20030;-86
2023/08/23 01:03:05;;;;;;;8.73;5.72;;;19.90;99.90;;;;;;6284718;22;20030;-86
2023/08/23 01:06:29;;;;;;;6.35;5.40;;;19.80;99.90;;;;;;6309221;22;20071;-85
2023/08/23 01:09:25;;;;;;;6.63;4.68;;;19.80;99.90;;;;;;6307543;22;20019;-85
2023/08/23 01:12:25;;;;;;;8.68;4.97;;;19.80;99.90;;;;;;6307765;22;20019;-87
2023/08/23 01:15:13;;;;;;;12.10;5.80;;;19.80;1.00;;;;;;6307145;22;20090;-86
2023/08/23 01:18:02;;;;;;;5.72;5.18;;;19.80;1.00;;;;;;6286579;22;20024;-87
2023/08/23 01:20:53;;;;;;;7.38;5.07;;;20.00;99.90;;;;;;6307322;22;20034;-85
2023/08/23 01:23:41;;;;;;;5.80;4.68;;;20.00;99.90;;;;;;6307051;22;20089;-87
2023/08/23 01:26:29;;;;;;;10.25;5.57;;;20.00;99.90;;;;;;6308211;22;20303;-87
2023/08/23 01:29:16;;;;;;;10.30;5.30;;;19.90;99.90;;;;;;6286634;22;20415;-87
2023/08/23 01:32:43;;;;;;;7.38;4.78;;;19.90;99.90;;;;;;6306637;22;20027;-87
2023/08/23 01:35:42;;;;;;;7.30;5.15;;;19.80;99.90;;;;;;6312627;22;20038;-88
2023/08/23 01:38:33;;;;;;;7.45;4.88;;;19.70;99.90;;;;;;6298325;22;20019;-87
2023/08/23 01:41:21;;;;;;;6.55;4.75;;;19.70;99.90;;;;;;6318687;22;20027;-86
2023/08/23 01:44:08;;;;;;;7.30;4.95;;;19.70;99.90;;;;;;6315088;22;20369;-86
2023/08/23 01:46:55;;;;;;;7.13;5.03;;;19.70;99.90;;;;;;6285503;22;20027;-86
2023/08/23 01:49:43;;;;;;;10.40;5.57;;;19.60;99.90;;;;;;6309739;22;20034;-85
2023/08/23 01:52:33;;;;;;;10.15;5.88;;;19.70;39.50;;;;;;6309191;22;20027;-86
2023/08/23 01:55:21;;;;;;;12.38;5.30;;;19.60;36.20;;;;;;6306156;22;20031;-85
2023/08/23 01:58:09;;;;;;;8.43;5.78;;;19.60;81.80;;;;;;6306286;22;20020;-87
2023/08/23 02:00:59;;;;;;;6.13;5.50;;;19.50;1.00;;;;;;6309165;22;20027;-87
2023/08/23 02:03:47;;;;;;;8.90;6.10;;;19.60;99.90;;;;;;6283783;22;20023;-86
2023/08/23 02:06:34;;;;;;;10.38;6.28;;;19.60;1.00;;;;;;6308565;22;20027;-86
2023/08/23 02:09:21;;;;;;;9.13;6.05;;;19.60;99.90;;;;;;6307963;22;20026;-85
2023/08/23 02:12:11;;;;;;;7.88;5.75;;;19.50;99.90;;;;;;6307237;22;20027;-87
2023/08/23 02:15:00;;;;;;;8.77;5.88;;;19.40;1.00;;;;;;6307295;22;20038;-88
2023/08/23 02:17:52;;;;;;;10.25;6.28;;;19.40;1.00;;;;;;6314131;22;20027;-86
2023/08/23 02:20:40;;;;;;;10.20;6.03;;;19.40;99.90;;;;;;6321624;22;20019;-86
2023/08/23 02:23:27;;;;;;;10.27;6.10;;;19.30;99.90;;;;;;6298842;22;20042;-86
2023/08/23 02:26:15;;;;;;;13.25;6.43;;;19.40;99.90;;;;;;6323529;22;20023;-85
2023/08/23 02:29:03;;;;;;;9.95;5.90;;;19.30;64.60;;;;;;6301127;22;20027;-85
2023/08/23 02:31:50;;;;;;;9.77;6.03;;;19.40;99.90;;;;;;6329888;22;20027;-85
2023/08/23 02:34:37;;;;;;;10.07;5.57;;;19.40;1.00;;;;;;6328751;22;20280;-87
2023/08/23 02:37:25;;;;;;;11.25;6.97;;;19.30;61.00;;;;;;6313324;22;20019;-87
2023/08/23 02:40:13;;;;;;;9.18;6.57;;;19.30;1.00;;;;;;6290823;22;20026;-87
2023/08/23 02:43:00;;;;;;;8.88;6.20;;;19.20;99.90;;;;;;6317410;22;20067;-86
2023/08/23 02:45:47;;;;;;;9.38;6.70;;;19.10;99.90;;;;;;6314812;22;20053;-88
2023/08/23 02:48:37;;;;;;;9.02;6.70;;;19.10;99.90;;;;;;6307928;22;20039;-88
2023/08/23 02:51:29;;;;;;;9.27;6.93;;;19.00;99.90;;;;;;6309602;22;20027;-87
2023/08/23 02:54:23;;;;;;;8.90;7.15;;;19.00;99.90;;;;;;6286671;22;20038;-88
2023/08/23 02:57:10;;;;;;;11.05;7.15;;;19.00;99.90;;;;;;6308186;22;20027;-87
2023/08/23 02:59:58;;;;;;;9.52;6.88;;;18.90;1.00;;;;;;6287652;22;20016;-89
2023/08/23 03:02:47;;;;;;;11.15;7.07;;;19.00;1.00;;;;;;6306885;22;20027;-85
2023/08/23 03:05:34;;;;;;;12.32;6.85;;;19.00;1.00;;;;;;6305913;22;20031;-87
2023/08/23 03:08:25;;;;;;;10.02;7.03;;;19.00;1.00;;;;;;6284238;22;20019;-88
2023/08/23 03:11:12;;;;;;;8.30;7.03;;;19.00;1.00;;;;;;6306380;22;20098;-88
2023/08/23 03:14:00;;;;;;;11.73;7.13;;;19.00;1.00;;;;;;6307360;22;20437;-87
2023/08/23 03:16:47;;;;;;;9.77;6.85;;;18.90;1.00;;;;;;6282316;22;20019;-88
2023/08/23 03:19:36;;;;;;;14.95;8.15;;;19.00;1.00;;;;;;6309293;22;20019;-88
2023/08/23 03:22:24;;;;;;;12.27;7.20;;;19.00;99.90;;;;;;6307589;22;20102;-87
2023/08/23 03:25:12;;;;;;;12.77;7.63;;;18.90;99.90;;;;;;6311496;22;20031;-87
2023/08/23 03:27:59;;;;;;;10.45;7.25;;;18.80;99.90;;;;;;6287129;22;20027;-87
2023/08/23 03:30:46;;;;;;;14.38;7.57;;;18.80;99.90;;;;;;6309460;22;20329;-87
2023/08/23 03:33:34;;;;;;;13.82;6.97;;;18.80;99.90;;;;;;6307123;22;20030;-87
2023/08/23 03:36:22;;;;;;;14.80;7.80;;;18.80;1.00;;;;;;6309753;22;20023;-86
2023/08/23 03:39:10;;;;;;;9.45;7.50;;;18.70;36.00;;;;;;6307028;22;20034;-86
2023/08/23 03:41:57;;;;;;;10.85;7.78;;;18.60;41.60;;;;;;6310735;22;20077;-88
2023/08/23 03:44:44;;;;;;;9.90;7.85;;;18.50;99.90;;;;;;6287503;22;20031;-87
2023/08/23 03:47:32;;;;;;;12.85;8.52;;;18.50;99.90;;;;;;6287973;22;20035;-87
2023/08/23 03:50:19;;;;;;;13.25;8.40;;;18.50;99.90;;;;;;6285605;22;20373;-88
2023/08/23 03:53:11;;;;;;;13.32;8.18;;;18.40;99.90;;;;;;6308585;22;20023;-87
2023/08/23 03:55:58;;;;;;;11.43;8.75;;;18.40;99.90;;;;;;6310111;22;20031;-87
2023/08/23 03:58:47;;;;;;;11.70;9.38;;;18.50;99.90;;;;;;6284573;22;20027;-85
2023/08/23 04:01:34;;;;;;;12.60;9.27;;;18.40;99.90;;;;;;6308873;22;20107;-87
2023/08/23 04:04:24;;;;;;;12.45;7.82;;;18.50;99.90;;;;;;6309119;22;20061;-88
2023/08/23 04:07:13;;;;;;;16.42;9.10;;;18.50;99.90;;;;;;6267237;22;20133;-87
2023/08/23 04:10:12;;;;;;;15.15;8.93;;;18.40;99.90;;;;;;6308252;22;20023;-87
2023/08/23 04:13:00;;;;;;;12.88;8.90;;;18.30;99.90;;;;;;6310710;22;20075;-87
2023/08/23 04:15:50;;;;;;;13.90;8.65;;;18.20;99.90;;;;;;6286214;22;20039;-87
2023/08/23 04:18:44;;;;;;;12.75;9.07;;;18.20;99.90;;;;;;6286946;22;20027;-87
2023/08/23 04:21:32;;;;;;;12.82;8.43;;;18.20;99.90;;;;;;6310086;22;20027;-88
2023/08/23 04:24:21;;;;;;;13.23;8.50;;;18.30;99.90;;;;;;6266667;22;20027;-87
2023/08/23 04:27:16;;;;;;;13.77;8.75;;;18.20;99.90;;;;;;6312844;22;20027;-88
2023/08/23 04:30:06;;;;;;;14.77;8.43;;;18.20;99.90;;;;;;6314909;22;20107;-86
2023/08/23 04:32:54;;;;;;;20.20;8.60;;;18.20;99.90;;;;;;6318764;22;20039;-88
2023/08/23 04:35:41;;;;;;;12.75;9.70;;;18.20;99.90;;;;;;6328165;22;20034;-85
2023/08/23 04:38:31;;;;;;;15.55;8.60;;;18.20;99.90;;;;;;6322699;22;20448;-88
2023/08/23 04:41:20;;;;;;;13.35;8.85;;;18.20;99.90;;;;;;6312880;22;20027;-87
2023/08/23 04:44:07;;;;;;;10.93;8.68;;;18.20;99.90;;;;;;6311638;22;20023;-88
2023/08/23 04:47:00;;;;;;;11.00;8.27;;;18.20;99.90;;;;;;6308695;22;20034;-88
2023/08/23 04:49:47;;;;;;;;;;;18.30;99.90;;;;;;6306909;22;20023;-87
2023/08/23 04:52:34;;;;;;;11.27;8.55;;;18.30;99.90;;;;;;6307675;22;19915;-90
2023/08/23 04:55:23;;;;;;;13.82;8.88;;;18.30;99.90;;;;;;6306727;22;20023;-86
2023/08/23 04:58:12;;;;;;;12.02;8.80;;;18.20;99.90;;;;;;6308605;22;20027;-87
2023/08/23 05:01:06;;;;;;;13.45;9.38;;;18.30;99.90;;;;;;6305223;22;20399;-89
2023/08/23 05:03:53;;;;;;;10.40;7.88;;;18.30;99.90;;;;;;6309499;22;20390;-88
2023/08/23 05:06:40;;;;;;;13.80;9.18;;;18.40;99.90;;;;;;6307551;22;20030;-87
2023/08/23 05:09:30;;;;;;;12.05;8.68;;;18.40;99.90;;;;;;6307153;22;20027;-87
2023/08/23 05:12:17;;;;;;;13.27;8.82;;;18.50;99.90;;;;;;6307383;22;20023;-87
2023/08/23 05:15:05;;;;;;;11.38;8.45;;;18.50;99.90;;;;;;6310076;22;20178;-87
2023/08/23 05:17:53;;;;;;;15.63;8.80;;;18.50;99.90;;;;;;6308940;22;20039;-88
2023/08/23 05:20:40;;;;;;;12.63;7.57;;;18.60;99.90;;;;;;6316976;22;20050;-89
2023/08/23 05:23:27;;;;;;;9.57;8.07;;;18.70;99.90;;;;;;6293373;22;20029;-90
2023/08/23 05:26:14;;;;;;;11.77;8.15;;;18.80;99.90;;;;;;6287795;22;20039;-91
2023/08/23 05:29:04;;;;;;;17.45;8.43;;;18.80;99.90;;;;;;6310390;22;20023;-89
2023/08/23 05:31:51;;;;;;;11.10;8.13;;;18.90;99.90;;;;;;6314865;22;20037;-90
2023/08/23 05:34:40;;;;;;;12.15;8.95;;;19.10;1.00;;;;;;6314210;22;20051;-90
2023/08/23 05:37:27;;;;;;;12.18;8.60;;;19.10;1.00;;;;;;6307074;22;20106;-90
2023/08/23 05:40:17;;;;;;;15.85;9.75;;;19.10;99.90;;;;;;6291484;22;20023;-91
2023/08/23 05:43:07;;;;;;;15.73;9.02;;;19.30;99.90;;;;;;6313802;22;20023;-90
2023/08/23 05:45:57;;;;;;;15.70;9.18;;;19.20;1.00;;;;;;6285683;22;20932;-90
2023/08/23 05:48:46;;;;;;;16.13;8.85;;;19.20;99.90;;;;;;6286062;22;20421;-91
2023/08/23 05:51:33;;;;;;;15.63;8.95;;;19.30;99.90;;;;;;6307693;22;20030;-90
2023/08/23 05:54:23;;;;;;;11.88;8.75;;;19.30;99.90;;;;;;6304623;22;20030;-91
2023/08/23 05:57:13;;;;;;;10.90;8.43;;;19.40;89.60;;;;;;6285726;22;20027;-89
2023/08/23 06:00:00;;;;;;;11.65;8.80;;;19.50;1.00;;;;;;6308045;22;20406;-90
2023/08/23 06:02:47;;;;;;;10.35;8.00;;;19.50;99.90;;;;;;6282817;22;20027;-87
2023/08/23 06:05:34;;;;;;;10.88;7.90;;;19.60;92.70;;;;;;6283911;22;20049;-91
2023/08/23 06:08:22;;;;;;;11.15;7.90;;;19.70;99.90;;;;;;6305010;22;20027;-91
2023/08/23 06:11:28;;;;;;;;;;;;;;;;;;;;;
2023/08/23 07:00:20;;;;;;;11.00;7.50;;;21.60;1.00;;;;;;6078604;23;20027;-90
2023/08/23 07:19:52;;;;;;;11.10;6.82;;;22.90;99.90;;;;;;6010964;23;20020;-93
2023/08/23 07:22:38;;;;;;;7.88;6.07;;;22.70;99.90;;;;;;5990568;23;20106;-89
2023/08/23 07:25:27;;;;;;;8.32;5.72;;;23.00;99.90;;;;;;6008396;23;20076;-90
2023/08/23 07:54:44;;;;;;;6.65;5.30;;;24.90;1.00;;;;;;5847970;24;20358;-94
2023/08/23 08:05:44;;;;;;;7.65;4.40;;;27.10;99.90;;;;;;5849482;24;20037;-91
2023/08/23 08:08:54;;;;;;;9.65;3.80;;;27.80;99.90;;;;;;5860539;24;20041;-89
2023/08/23 08:11:41;;;;;;;9.32;4.15;;;27.80;99.90;;;;;;5942884;23;20106;-90
2023/08/23 08:14:33;;;;;;;9.07;4.80;;;27.50;99.90;;;;;;6123915;23;20048;-89
2023/08/23 08:17:52;;;;;;;6.82;5.10;;;27.70;99.90;;;;;;6162654;23;20428;-89
2023/08/23 08:20:52;;;;;;;12.55;5.57;;;27.10;99.90;;;;;;6213993;23;20080;-89
2023/08/23 08:23:47;;;;;;;10.57;6.00;;;26.80;99.90;;;;;;6213292;23;20415;-88
2023/08/23 08:47:52;;;;;;;11.40;5.65;;;27.00;99.90;;;;;;6066278;23;20019;-88
2023/08/23 09:03:25;;;;;;;6.57;4.72;;;30.30;99.90;;;;;;6014841;23;20036;-95
2023/08/23 09:11:35;;;;;;;;;;;;;;;;;;;;;
2023/08/23 09:19:29;;;;;;;;;;;;;;;;;;;;;
2023/08/23 09:43:52;;;;;;;7.10;3.40;;;32.30;30.80;;;;;;6127671;23;20005;-94
2023/08/23 09:47:09;;;;;;;10.32;3.50;;;32.60;13.90;;;;;;6110670;23;20025;-92
2023/08/23 09:49:59;;;;;;;9.50;4.10;;;33.30;16.70;;;;;;6245954;22;20023;-92
2023/08/23 09:52:51;;;;;;;8.27;3.30;;;33.80;1.00;;;;;;6252561;22;20100;-91
2023/08/23 09:55:41;;;;;;;6.50;3.67;;;32.50;1.00;;;;;;6275125;22;20023;-91
2023/08/23 09:58:32;;;;;;;5.38;3.30;;;32.90;1.00;;;;;;6275269;22;20028;-91
2023/08/23 10:01:25;;;;;;;7.43;3.75;;;33.40;1.00;;;;;;6276661;22;20364;-90
2023/08/23 10:04:24;;;;;;;5.30;3.13;;;33.30;1.00;;;;;;6275033;22;20027;-91
2023/08/23 10:07:15;;;;;;;7.32;3.35;;;33.30;1.00;;;;;;6276937;22;20031;-94
2023/08/23 10:10:05;;;;;;;5.82;3.42;;;33.90;1.00;;;;;;6278448;22;20023;-89
2023/08/23 10:12:58;;;;;;;7.53;3.50;;;33.90;1.00;;;;;;6256141;22;20064;-88
2023/08/23 10:15:47;;;;;;;11.27;3.90;;;35.40;1.00;;;;;;6277438;22;20036;-90
2023/08/23 10:18:50;;;;;;;6.05;3.42;;;35.00;1.00;;;;;;6259666;22;20499;-95
2023/08/23 10:38:38;;;;;;;8.35;3.33;;;37.00;1.00;;;;;;6212362;23;20024;-90
2023/08/23 10:42:08;;;;;;;5.93;3.28;;;36.30;1.00;;;;;;6210713;23;20067;-90
2023/08/23 10:45:05;;;;;;;5.55;3.13;;;36.60;1.00;;;;;;6284950;22;20027;-88
2023/08/23 10:47:53;;;;;;;7.13;3.25;;;37.40;1.00;;;;;;6284635;22;20336;-92
2023/08/23 10:50:41;;;;;;;8.90;2.95;;;38.00;1.00;;;;;;6305050;22;20050;-91
2023/08/23 10:53:30;;;;;;;6.30;3.05;;;38.60;1.00;;;;;;6306031;22;20023;-90
2023/08/23 10:56:30;;;;;;;5.15;2.60;;;39.00;1.00;;;;;;6281109;22;20024;-92
2023/08/23 10:59:20;;;;;;;8.48;2.78;;;39.40;1.00;;;;;;6306238;22;20026;-90
2023/08/23 11:02:08;;;;;;;6.38;2.60;;;39.10;1.00;;;;;;6283888;22;20027;-92
2023/08/23 11:05:39;;;;;;;6.68;2.58;;;39.20;1.00;;;;;;6305835;22;20436;-92
2023/08/23 11:08:45;;;;;;;9.20;2.78;;;38.90;1.00;;;;;;6284576;22;20027;-90
2023/08/23 11:11:32;;;;;;;2.85;2.25;;;39.40;1.00;;;;;;6305574;22;20485;-91
2023/08/23 11:14:19;;;;;;;4.63;2.50;;;39.90;1.00;;;;;;6305151;22;20031;-89
2023/08/23 11:17:15;;;;;;;3.75;2.72;;;40.20;1.00;;;;;;6302547;22;20047;-90
2023/08/23 11:20:03;;;;;;;5.63;2.88;;;40.20;1.00;;;;;;6283108;22;20023;-91
2023/08/23 11:22:50;;;;;;;5.53;2.47;;;40.50;1.00;;;;;;6305535;22;20027;-88
2023/08/23 11:25:38;;;;;;;10.52;3.10;;;40.50;1.00;;;;;;6304426;22;20023;-89
2023/08/23 11:28:25;;;;;;;3.10;2.80;;;40.10;1.00;;;;;;6306652;22;20174;-90
2023/08/23 11:31:12;;;;;;;5.03;2.38;;;40.00;1.00;;;;;;6306549;22;20405;-90
2023/08/23 11:34:05;;;;;;;3.42;2.58;;;40.40;1.00;;;;;;6307388;22;20098;-90
2023/08/23 11:36:53;;;;;;;4.60;2.95;;;41.20;1.00;;;;;;6304379;22;20043;-89
2023/08/23 11:39:40;;;;;;;3.55;2.65;;;41.10;1.00;;;;;;6285443;22;20019;-87
2023/08/23 11:42:51;;;;;;;3.80;2.58;;;41.20;1.00;;;;;;6307348;22;20054;-92
2023/08/23 11:45:54;;;;;;;4.78;2.70;;;41.70;1.00;;;;;;6307353;22;20016;-89
2023/08/23 11:48:44;;;;;;;4.15;2.70;;;41.00;1.00;;;;;;6283864;22;20027;-87
2023/08/23 11:52:07;;;;;;;3.95;2.50;;;40.50;1.00;;;;;;6287048;22;20020;-91
2023/08/23 11:55:26;;;;;;;3.13;2.50;;;40.50;1.00;;;;;;6284416;22;20046;-90
2023/08/23 11:58:23;;;;;;;5.25;2.85;;;40.00;1.00;;;;;;6305999;22;20085;-90
2023/08/23 12:01:13;;;;;;;3.95;2.50;;;40.20;1.00;;;;;;6308823;22;20406;-90
2023/08/23 12:04:03;;;;;;;4.85;2.63;;;40.50;1.00;;;;;;6307592;22;20034;-90
2023/08/23 12:06:52;;;;;;;6.30;2.55;;;40.30;1.00;;;;;;6309203;22;20051;-92
2023/08/23 12:09:39;;;;;;;5.90;3.00;;;41.00;1.00;;;;;;6285106;22;20164;-89
2023/08/23 12:12:27;;;;;;;7.35;2.70;;;41.10;1.00;;;;;;6286575;22;20023;-90
2023/08/23 12:15:15;;;;;;;5.40;2.60;;;41.20;1.00;;;;;;6306329;22;20027;-91
2023/08/23 12:18:05;;;;;;;4.13;2.30;;;41.90;1.00;;;;;;6306571;22;20031;-89
2023/08/23 12:20:55;;;;;;;4.10;2.55;;;42.40;1.00;;;;;;6308615;22;20357;-88
2023/08/23 12:23:42;;;;;;;7.50;2.85;;;42.00;1.00;;;;;;6285390;22;20035;-90
2023/08/23 12:26:43;;;;;;;4.45;2.53;;;41.00;1.00;;;;;;6306877;22;20465;-89
2023/08/23 12:29:41;;;;;;;10.15;2.55;;;40.70;1.00;;;;;;6306289;22;20027;-93
2023/08/23 12:32:28;;;;;;;6.88;2.72;;;40.70;1.00;;;;;;6308915;22;20033;-87
2023/08/23 12:35:16;;;;;;;6.82;2.58;;;40.80;1.00;;;;;;6305859;22;20027;-88
2023/08/23 12:38:10;;;;;;;8.68;2.60;;;41.40;1.00;;;;;;6308210;22;20027;-91
2023/08/23 12:41:38;;;;;;;8.50;2.63;;;40.60;1.00;;;;;;6180698;23;20021;-93
2023/08/23 12:45:10;;;;;;;8.18;2.83;;;40.50;1.00;;;;;;6184520;23;20310;-94
2023/08/23 12:51:51;;;;;;;6.15;2.63;;;39.20;1.00;;;;;;6168639;23;20072;-92
2023/08/23 12:54:43;;;;;;;3.75;2.30;;;40.30;1.00;;;;;;6179053;23;20025;-91
2023/08/23 13:01:34;;;;;;;7.43;2.60;;;41.70;1.00;;;;;;6303582;22;20023;-89
2023/08/23 13:04:29;;;;;;;4.57;2.70;;;42.20;1.00;;;;;;6305452;22;20038;-88
2023/08/23 13:07:24;;;;;;;4.88;2.78;;;41.50;1.00;;;;;;6304916;22;20441;-91
2023/08/23 13:10:11;;;;;;;5.85;2.50;;;41.50;1.00;;;;;;6304559;22;20038;-91
2023/08/23 13:12:59;;;;;;;6.70;2.63;;;41.10;1.00;;;;;;6307733;22;20034;-93
2023/08/23 13:15:46;;;;;;;5.93;2.95;;;41.30;1.00;;;;;;6309149;22;20027;-90
2023/08/23 13:18:36;;;;;;;6.40;2.85;;;41.10;1.00;;;;;;6306425;22;20023;-88
2023/08/23 13:21:56;;;;;;;;;;;;;;;;;;;;;
2023/08/23 13:28:47;;;;;;;6.25;3.00;;;41.30;1.00;;;;;;6096092;23;20110;-90
2023/08/23 13:31:34;;;;;;;6.80;2.50;;;41.40;1.00;;;;;;6113680;23;20037;-92
2023/08/23 13:34:22;;;;;;;3.92;2.33;;;41.30;1.00;;;;;;6156171;23;20084;-92
2023/08/23 13:37:12;;;;;;;8.25;2.90;;;40.40;1.00;;;;;;6153476;23;20371;-90
2023/08/23 13:39:59;;;;;;;3.88;2.42;;;39.40;1.00;;;;;;6155077;23;20032;-88
2023/08/23 13:42:46;;;;;;;7.53;2.50;;;39.50;1.00;;;;;;6133896;23;20025;-92
2023/08/23 13:45:47;;;;;;;3.80;2.60;;;40.20;1.00;;;;;;6140187;23;20026;-88
2023/08/23 13:48:35;;;;;;;8.38;2.70;;;39.50;1.00;;;;;;6155525;23;20683;-91
2023/08/23 13:51:22;;;;;;;3.78;2.78;;;39.40;1.00;;;;;;6134366;23;20030;-89
2023/08/23 13:54:10;;;;;;;4.82;2.78;;;38.60;1.00;;;;;;6160005;23;20040;-88
2023/08/23 13:57:00;;;;;;;6.55;3.08;;;37.90;1.00;;;;;;6158889;23;20037;-90
2023/08/23 13:59:48;;;;;;;9.13;3.05;;;37.90;1.00;;;;;;6159358;23;20214;-89
2023/08/23 14:02:36;;;;;;;6.35;2.35;;;39.00;1.00;;;;;;6158411;23;20123;-88
2023/08/23 14:05:26;;;;;;;11.43;3.10;;;39.80;1.00;;;;;;6215443;22;20034;-88
2023/08/23 14:08:13;;;;;;;9.93;3.00;;;40.40;1.00;;;;;;6293416;22;20023;-90
2023/08/23 14:11:03;;;;;;;17.27;9.98;;;39.60;1.00;;;;;;6308519;22;20102;-91
2023/08/23 14:13:51;;;;;;;11.60;2.95;;;39.80;1.00;;;;;;6286315;22;20047;-91
2023/08/23 14:16:38;;;;;;;5.78;2.90;;;39.80;1.00;;;;;;6309750;22;20038;-91
2023/08/23 14:19:30;;;;;;;4.75;2.65;;;40.20;1.00;;;;;;6288148;22;20029;-91
2023/08/23 14:22:17;;;;;;;;;;;39.90;1.00;;;;;;6303009;22;20071;-90
2023/08/23 14:25:06;;;;;;;5.28;2.80;;;40.20;1.00;;;;;;6324124;22;19919;-89
2023/08/23 14:27:53;;;;;;;10.98;3.20;;;40.10;1.00;;;;;;6304975;22;20015;-87
2023/08/23 14:30:43;;;;;;;6.40;2.63;;;40.60;1.00;;;;;;6333996;22;20023;-87
2023/08/23 14:33:31;;;;;;;3.00;2.30;;;40.50;1.00;;;;;;6332765;22;20063;-91
2023/08/23 14:36:18;;;;;;;4.93;2.88;;;40.30;1.00;;;;;;6326016;22;20397;-89
2023/08/23 14:39:06;;;;;;;5.00;2.90;;;39.90;1.00;;;;;;6332581;22;20035;-87
2023/08/23 14:41:54;;;;;;;5.55;2.55;;;39.90;1.00;;;;;;6317427;22;20015;-89
2023/08/23 14:44:43;;;;;;;4.93;2.85;;;39.70;1.00;;;;;;6305933;22;20029;-90
2023/08/23 14:47:30;;;;;;;6.07;2.83;;;39.40;1.00;;;;;;6300378;22;20075;-93
2023/08/23 14:50:18;;;;;;;4.60;2.53;;;39.40;1.00;;;;;;6326138;22;20075;-90
2023/08/23 14:53:08;;;;;;;9.15;2.38;;;39.60;1.00;;;;;;6296085;22;20090;-90
2023/08/23 14:55:55;;;;;;;3.88;2.63;;;39.90;1.00;;;;;;6290616;22;20027;-90
2023/08/23 14:58:43;;;;;;;4.60;2.60;;;40.20;1.00;;;;;;6292974;22;20038;-90
2023/08/23 15:01:32;;;;;;;7.63;2.70;;;40.20;1.00;;;;;;6311468;22;20049;-90
2023/08/23 15:04:20;;;;;;;5.68;2.70;;;40.40;1.00;;;;;;6286124;22;20038;-90
2023/08/23 15:07:09;;;;;;;6.03;2.38;;;40.20;1.00;;;;;;6287107;22;20437;-89
2023/08/23 15:09:57;;;;;;;5.68;2.67;;;39.70;1.00;;;;;;6285508;22;20031;-90
2023/08/23 15:12:46;;;;;;;4.05;2.53;;;39.30;1.00;;;;;;6308428;22;20027;-92
2023/08/23 15:15:36;;;;;;;5.05;2.88;;;39.10;1.00;;;;;;6307589;22;20775;-91
2023/08/23 15:18:25;;;;;;;4.07;2.88;;;39.30;1.00;;;;;;6284882;22;20089;-91
2023/08/23 15:21:14;;;;;;;7.47;2.58;;;39.10;1.00;;;;;;6304439;22;20027;-90
2023/08/23 15:24:02;;;;;;;9.00;2.97;;;38.90;1.00;;;;;;6318523;22;20331;-92
2023/08/23 15:26:55;;;;;;;6.65;2.60;;;38.50;1.00;;;;;;6293135;22;20028;-88
2023/08/23 15:29:44;;;;;;;8.15;2.60;;;38.40;1.00;;;;;;6295543;22;20023;-90
2023/08/23 15:32:56;;;;;;;5.13;2.60;;;37.90;1.00;;;;;;6311876;22;20027;-91
2023/08/23 15:35:44;;;;;;;6.15;2.75;;;37.30;1.00;;;;;;6310313;22;20034;-87
2023/08/23 15:38:31;;;;;;;5.95;2.90;;;36.40;1.00;;;;;;6290986;22;20023;-89
2023/08/23 15:41:18;;;;;;;3.22;2.58;;;35.60;1.00;;;;;;6313502;22;20037;-89
2023/08/23 15:44:08;;;;;;;6.75;3.03;;;35.50;1.00;;;;;;6289760;22;20304;-90
2023/08/23 15:46:55;;;;;;;9.10;2.55;;;35.50;1.00;;;;;;6310834;22;20023;-88
2023/08/23 15:49:43;;;;;;;4.55;2.50;;;35.50;1.00;;;;;;6289365;22;20037;-88
2023/08/23 15:52:30;;;;;;;5.97;2.95;;;35.80;1.00;;;;;;6291116;22;20027;-89
2023/08/23 15:55:19;;;;;;;8.70;2.88;;;34.90;1.00;;;;;;6288375;22;20576;-89
2023/08/23 15:58:08;;;;;;;9.02;3.40;;;34.00;1.00;;;;;;6310744;22;20061;-88
2023/08/23 16:00:56;;;;;;;6.03;2.70;;;33.20;1.00;;;;;;6310213;22;20069;-89
2023/08/23 16:03:43;;;;;;;8.18;2.85;;;32.80;1.00;;;;;;6314100;22;20057;-89
2023/08/23 16:06:33;;;;;;;6.55;3.13;;;32.40;1.00;;;;;;6317858;22;20078;-88
2023/08/23 16:09:21;;;;;;;4.95;2.85;;;32.20;1.00;;;;;;6291340;22;20102;-89
2023/08/23 16:12:08;;;;;;;5.18;2.20;;;32.00;1.00;;;;;;6288517;22;20031;-89
2023/08/23 16:14:55;;;;;;;3.80;2.35;;;31.70;1.00;;;;;;6310921;22;20153;-89
2023/08/23 16:17:43;;;;;;;4.07;2.17;;;31.30;1.00;;;;;;6290291;22;20023;-86
2023/08/23 16:20:32;;;;;;;3.42;2.30;;;31.30;1.00;;;;;;6316251;22;20069;-88
2023/08/23 16:23:20;;;;;;;6.18;2.72;;;31.00;1.00;;;;;;6309791;22;20035;-88
2023/08/23 16:26:08;;;;;;;5.78;2.05;;;31.10;1.00;;;;;;6315447;22;20034;-88
2023/08/23 16:28:56;;;;;;;6.53;2.50;;;30.90;1.00;;;;;;6291513;22;20030;-88
2023/08/23 16:31:43;;;;;;;3.58;2.42;;;30.60;1.00;;;;;;6311069;22;20050;-90
2023/08/23 16:34:31;;;;;;;5.78;2.55;;;30.10;1.00;;;;;;6308940;22;20084;-84
2023/08/23 16:37:22;;;;;;;6.78;2.80;;;29.60;1.00;;;;;;6317907;22;20047;-86
2023/08/23 16:40:12;;;;;;;6.60;2.28;;;29.40;1.00;;;;;;6314345;22;20083;-87
2023/08/23 16:42:59;;;;;;;3.58;2.60;;;29.00;1.00;;;;;;6314903;22;20038;-87
2023/08/23 16:45:46;;;;;;;6.05;2.90;;;28.70;1.00;;;;;;6313473;22;20023;-86
2023/08/23 16:48:34;;;;;;;4.80;2.72;;;28.40;1.00;;;;;;6292344;22;20026;-88
2023/08/23 16:51:22;;;;;;;6.15;2.92;;;28.20;1.00;;;;;;6312561;22;20027;-86
2023/08/23 16:54:10;;;;;;;8.85;2.63;;;28.10;1.00;;;;;;6291255;22;20023;-88
2023/08/23 16:56:57;;;;;;;8.63;2.58;;;28.00;1.00;;;;;;6310592;22;20019;-86
2023/08/23 16:59:45;;;;;;;2.75;2.35;;;28.00;1.00;;;;;;6293501;22;20023;-87
2023/08/23 17:02:32;;;;;;;7.85;3.13;;;27.90;1.00;;;;;;6313039;22;20080;-90
2023/08/23 17:05:24;;;;;;;7.18;2.45;;;27.90;1.00;;;;;;6292319;22;20039;-85
2023/08/23 17:08:15;;;;;;;7.28;2.72;;;27.80;1.00;;;;;;6290863;22;20034;-87
2023/08/23 17:11:03;;;;;;;8.73;2.83;;;27.80;1.00;;;;;;6294524;22;20037;-87
2023/08/23 17:13:51;;;;;;;5.63;2.65;;;27.60;1.00;;;;;;6291748;22;20023;-86
2023/08/23 17:16:39;;;;;;;8.35;2.67;;;27.50;1.00;;;;;;6312855;22;20031;-86
2023/08/23 17:19:26;;;;;;;4.00;2.65;;;27.30;1.00;;;;;;6317669;22;20023;-87
2023/08/23 17:22:14;;;;;;;9.23;2.97;;;27.10;1.00;;;;;;6293108;22;20024;-87
2023/08/23 17:25:01;;;;;;;7.57;2.92;;;26.90;1.00;;;;;;6312443;22;20022;-88
2023/08/23 17:27:48;;;;;;;5.10;2.70;;;26.80;1.00;;;;;;6287344;22;20043;-87
2023/08/23 17:30:38;;;;;;;11.05;2.90;;;26.60;1.00;;;;;;6310425;22;20027;-86
2023/08/23 17:33:26;;;;;;;3.35;2.70;;;26.40;1.00;;;;;;6313254;22;20023;-88
2023/08/23 17:36:20;;;;;;;6.15;2.90;;;26.30;1.00;;;;;;6289475;22;20023;-87
2023/08/23 17:39:07;;;;;;;8.27;3.05;;;26.10;1.00;;;;;;6291789;22;20037;-87
2023/08/23 17:41:55;;;;;;;4.82;3.10;;;26.10;1.00;;;;;;6286096;22;20033;-87
2023/08/23 17:44:44;;;;;;;10.50;3.42;;;26.00;1.00;;;;;;6290545;22;20019;-87
2023/08/23 17:47:32;;;;;;;8.95;3.70;;;25.90;1.00;;;;;;6307482;22;20050;-87
2023/08/23 17:50:20;;;;;;;7.35;3.72;;;25.80;1.00;;;;;;6313772;22;20034;-87
2023/08/23 17:53:08;;;;;;;14.57;3.47;;;25.80;1.00;;;;;;6294421;22;20387;-87
2023/08/23 17:56:01;;;;;;;5.90;3.30;;;25.70;1.00;;;;;;6310515;22;20037;-88
2023/08/23 17:58:49;;;;;;;6.57;3.27;;;25.60;1.00;;;;;;6286667;22;20031;-86
2023/08/23 18:01:39;;;;;;;7.55;3.10;;;25.50;1.00;;;;;;6306958;22;20358;-86
2023/08/23 18:04:38;;;;;;;8.35;3.55;;;25.20;1.00;;;;;;6304915;22;20023;-87
2023/08/23 18:07:28;;;;;;;10.82;3.72;;;25.00;1.00;;;;;;6305948;22;20373;-87
2023/08/23 18:10:16;;;;;;;7.10;3.50;;;24.80;1.00;;;;;;6310515;22;20027;-88